sensor_id;sensor_type;location;lat;lon;timestamp;pressure;altitude;pressure_sealevel;temperature;humidity
48800;BME280;34611;47.964;7.982;2023-03-25T00:02:46;96376.00;;;11.14;66.98
48800;BME280;34611;47.964;7.982;2023-03-25T00:09:48;96379.44;;;11.14;66.85
48800;BME280;34611;47.964;7.982;2023-03-25T00:16:49;96364.78;;;11.13;66.86
48800;BME280;34611;47.964;7.982;2023-03-25T00:23:51;96364.78;;;11.13;66.89
48800;BME280;34611;47.964;7.982;2023-03-25T00:30:52;96366.44;;;11.14;66.77
48800;BME280;34611;47.964;7.982;2023-03-25T00:37:53;96331.78;;;11.14;66.80
48800;BME280;34611;47.964;7.982;2023-03-25T00:44:59;96321.38;;;11.14;66.99
48800;BME280;34611;47.964;7.982;2023-03-25T00:51:59;96310.03;;;11.15;67.05
48800;BME280;34611;47.964;7.982;2023-03-25T00:59:00;96302.22;;;11.15;66.91
48800;BME280;34611;47.964;7.982;2023-03-25T01:06:01;96328.22;;;11.15;66.94
48800;BME280;34611;47.964;7.982;2023-03-25T01:13:02;96321.25;;;11.16;66.85
48800;BME280;34611;47.964;7.982;2023-03-25T01:20:02;96326.44;;;11.16;66.91
48800;BME280;34611;47.964;7.982;2023-03-25T01:27:05;96353.44;;;11.14;67.02
48800;BME280;34611;47.964;7.982;2023-03-25T01:34:05;96343.03;;;11.14;66.92
48800;BME280;34611;47.964;7.982;2023-03-25T01:41:06;96353.28;;;11.16;67.03
48800;BME280;34611;47.964;7.982;2023-03-25T01:48:08;96345.47;;;11.16;67.06
48800;BME280;34611;47.964;7.982;2023-03-25T01:55:12;96336.84;;;11.16;66.83
48800;BME280;34611;47.964;7.982;2023-03-25T02:02:12;96324.81;;;11.14;67.03
48800;BME280;34611;47.964;7.982;2023-03-25T02:09:16;96316.84;;;11.16;66.96
48800;BME280;34611;47.964;7.982;2023-03-25T02:30:42;96341.25;;;11.15;66.94
48800;BME280;34611;47.964;7.982;2023-03-25T02:45:17;96389.69;;;11.16;66.85
48800;BME280;34611;47.964;7.982;2023-03-25T02:52:33;96396.69;;;11.16;66.98
48800;BME280;34611;47.964;7.982;2023-03-25T02:59:37;96390.66;;;11.15;67.05
48800;BME280;34611;47.964;7.982;2023-03-25T03:06:39;96380.25;;;11.15;67.08
48800;BME280;34611;47.964;7.982;2023-03-25T03:13:51;96408.72;;;11.17;67.09
48800;BME280;34611;47.964;7.982;2023-03-25T03:20:57;96410.50;;;11.16;66.99
48800;BME280;34611;47.964;7.982;2023-03-25T03:28:10;96408.88;;;11.15;67.15
48800;BME280;34611;47.964;7.982;2023-03-25T03:35:18;96410.50;;;11.16;66.75
48800;BME280;34611;47.964;7.982;2023-03-25T03:42:21;96409.69;;;11.16;67.13
48800;BME280;34611;47.964;7.982;2023-03-25T03:49:26;96428.72;;;11.16;67.05
48800;BME280;34611;47.964;7.982;2023-03-25T03:56:28;96428.72;;;11.16;66.94
48800;BME280;34611;47.964;7.982;2023-03-25T04:03:33;96417.50;;;11.16;67.03
48800;BME280;34611;47.964;7.982;2023-03-25T04:10:51;96410.50;;;11.16;67.02
48800;BME280;34611;47.964;7.982;2023-03-25T04:17:53;96420.91;;;11.16;67.08
48800;BME280;34611;47.964;7.982;2023-03-25T04:24:53;96421.88;;;11.15;66.89
48800;BME280;34611;47.964;7.982;2023-03-25T04:31:55;96419.28;;;11.15;66.97
48800;BME280;34611;47.964;7.982;2023-03-25T04:38:56;96425.31;;;11.16;66.92
48800;BME280;34611;47.964;7.982;2023-03-25T04:45:57;96420.91;;;11.16;66.82
48800;BME280;34611;47.964;7.982;2023-03-25T04:52:59;96427.75;;;11.17;66.96
48800;BME280;34611;47.964;7.982;2023-03-25T05:00:02;96441.72;;;11.16;67.09
48800;BME280;34611;47.964;7.982;2023-03-25T05:07:04;96458.97;;;11.17;66.97
48800;BME280;34611;47.964;7.982;2023-03-25T05:14:05;96443.50;;;11.16;66.89
48800;BME280;34611;47.964;7.982;2023-03-25T05:21:06;96456.50;;;11.16;66.84
48800;BME280;34611;47.964;7.982;2023-03-25T05:28:06;96455.69;;;11.15;67.16
48800;BME280;34611;47.964;7.982;2023-03-25T05:35:08;96445.13;;;11.17;67.09
48800;BME280;34611;47.964;7.982;2023-03-25T05:42:09;96446.91;;;11.16;67.09
48800;BME280;34611;47.964;7.982;2023-03-25T05:49:09;96446.09;;;11.16;67.13
48800;BME280;34611;47.964;7.982;2023-03-25T05:56:10;96430.63;;;11.14;67.02
48800;BME280;34611;47.964;7.982;2023-03-25T06:03:10;96445.28;;;11.15;67.00
48800;BME280;34611;47.964;7.982;2023-03-25T06:10:12;96429.69;;;11.15;66.87
48800;BME280;34611;47.964;7.982;2023-03-25T06:17:16;96427.09;;;11.15;67.06
48800;BME280;34611;47.964;7.982;2023-03-25T06:24:18;96427.09;;;11.15;66.95
48800;BME280;34611;47.964;7.982;2023-03-25T06:31:19;96431.31;;;11.16;67.04
48800;BME280;34611;47.964;7.982;2023-03-25T06:38:19;96434.88;;;11.15;67.14
48800;BME280;34611;47.964;7.982;2023-03-25T06:45:35;96398.47;;;11.15;66.89
48800;BME280;34611;47.964;7.982;2023-03-25T06:52:58;96412.44;;;11.14;66.97
48800;BME280;34611;47.964;7.982;2023-03-25T06:59:58;96421.59;;;11.18;67.17
48800;BME280;34611;47.964;7.982;2023-03-25T07:06:59;96401.75;;;11.17;66.89
48800;BME280;34611;47.964;7.982;2023-03-25T07:13:59;96410.50;;;11.16;66.90
48800;BME280;34611;47.964;7.982;2023-03-25T07:21:00;96418.16;;;11.18;67.08
48800;BME280;34611;47.964;7.982;2023-03-25T07:28:00;96412.28;;;11.16;67.18
48800;BME280;34611;47.964;7.982;2023-03-25T07:35:03;96397.50;;;11.16;66.93
48800;BME280;34611;47.964;7.982;2023-03-25T07:42:04;96400.91;;;11.17;66.90
48800;BME280;34611;47.964;7.982;2023-03-25T07:49:25;96416.50;;;11.17;67.09
48800;BME280;34611;47.964;7.982;2023-03-25T07:56:25;96431.31;;;11.16;67.00
48800;BME280;34611;47.964;7.982;2023-03-25T08:03:26;96417.34;;;11.17;66.96
48800;BME280;34611;47.964;7.982;2023-03-25T08:10:27;96414.06;;;11.15;67.08
48800;BME280;34611;47.964;7.982;2023-03-25T08:17:28;96393.28;;;11.15;67.02
48800;BME280;34611;47.964;7.982;2023-03-25T08:24:29;96431.31;;;11.16;66.92
48800;BME280;34611;47.964;7.982;2023-03-25T08:31:31;96436.50;;;11.16;66.89
48800;BME280;34611;47.964;7.982;2023-03-25T08:38:32;96443.38;;;11.17;67.14
48800;BME280;34611;47.964;7.982;2023-03-25T08:45:32;96434.88;;;11.15;67.25
48800;BME280;34611;47.964;7.982;2023-03-25T08:52:34;96450.34;;;11.17;67.20
48800;BME280;34611;47.964;7.982;2023-03-25T08:59:35;96450.34;;;11.17;66.96
48800;BME280;34611;47.964;7.982;2023-03-25T09:06:35;96446.91;;;11.16;67.00
48800;BME280;34611;47.964;7.982;2023-03-25T09:13:36;96445.97;;;11.17;67.29
48800;BME280;34611;47.964;7.982;2023-03-25T09:20:36;96446.09;;;11.16;67.11
48800;BME280;34611;47.964;7.982;2023-03-25T09:27:36;96443.50;;;11.16;67.22
48800;BME280;34611;47.964;7.982;2023-03-25T09:34:36;96473.75;;;11.17;67.18
48800;BME280;34611;47.964;7.982;2023-03-25T09:42:00;96451.19;;;11.17;67.08
48800;BME280;34611;47.964;7.982;2023-03-25T09:49:04;96486.75;;;11.17;67.29
48800;BME280;34611;47.964;7.982;2023-03-25T09:56:09;96487.72;;;11.16;67.23
48800;BME280;34611;47.964;7.982;2023-03-25T10:03:17;96489.22;;;11.18;67.09
48800;BME280;34611;47.964;7.982;2023-03-25T10:24:27;96512.38;;;11.21;67.45
48800;BME280;34611;47.964;7.982;2023-03-25T10:31:30;96515.09;;;11.20;67.56
48800;BME280;34611;47.964;7.982;2023-03-25T10:38:34;96519.50;;;11.19;67.51
48800;BME280;34611;47.964;7.982;2023-03-25T10:45:37;96518.66;;;11.19;67.20
48800;BME280;34611;47.964;7.982;2023-03-25T10:52:39;96515.09;;;11.20;67.36
48800;BME280;34611;47.964;7.982;2023-03-25T10:59:43;96506.06;;;11.24;67.19
48800;BME280;34611;47.964;7.982;2023-03-25T11:06:50;96504.69;;;11.20;67.41
48800;BME280;34611;47.964;7.982;2023-03-25T11:13:54;96508.22;;;11.28;67.42
48800;BME280;34611;47.964;7.982;2023-03-25T11:21:03;96531.28;;;11.23;67.55
48800;BME280;34611;47.964;7.982;2023-03-25T11:28:08;96501.97;;;11.21;67.38
48800;BME280;34611;47.964;7.982;2023-03-25T11:35:23;96502.91;;;11.20;67.39
48800;BME280;34611;47.964;7.982;2023-03-25T11:42:31;96509.09;;;11.19;67.28
48800;BME280;34611;47.964;7.982;2023-03-25T11:49:36;96507.16;;;11.21;67.19
48800;BME280;34611;47.964;7.982;2023-03-25T11:56:38;96518.25;;;11.23;67.28
48800;BME280;34611;47.964;7.982;2023-03-25T12:03:39;96507.97;;;11.22;67.33
48800;BME280;34611;47.964;7.982;2023-03-25T12:25:13;96508.94;;;11.21;67.70
48800;BME280;34611;47.964;7.982;2023-03-25T12:39:39;96483.03;;;11.29;67.73
48800;BME280;34611;47.964;7.982;2023-03-25T13:08:22;96462.94;;;11.21;67.74
48800;BME280;34611;47.964;7.982;2023-03-25T13:15:34;96455.13;;;11.21;67.70
48800;BME280;34611;47.964;7.982;2023-03-25T13:22:40;96456.91;;;11.21;67.90
48800;BME280;34611;47.964;7.982;2023-03-25T13:29:44;96472.38;;;11.22;67.57
48800;BME280;34611;47.964;7.982;2023-03-25T13:37:01;96483.75;;;11.21;67.80
48800;BME280;34611;47.964;7.982;2023-03-25T13:44:13;96461.22;;;11.40;67.56
48800;BME280;34611;47.964;7.982;2023-03-25T13:51:16;96500.56;;;11.27;67.87
48800;BME280;34611;47.964;7.982;2023-03-25T13:58:18;96498.13;;;11.25;68.00
48800;BME280;34611;47.964;7.982;2023-03-25T14:26:30;96499.19;;;11.23;67.49
48800;BME280;34611;47.964;7.982;2023-03-25T14:40:52;96507.00;;;11.23;67.64
48800;BME280;34611;47.964;7.982;2023-03-25T14:47:57;96508.78;;;11.22;67.43
48800;BME280;34611;47.964;7.982;2023-03-25T14:54:59;96501.97;;;11.21;67.38
48800;BME280;34611;47.964;7.982;2023-03-25T15:02:02;96494.16;;;11.21;67.43
48800;BME280;34611;47.964;7.982;2023-03-25T15:09:05;96486.34;;;11.21;67.26
48800;BME280;34611;47.964;7.982;2023-03-25T15:16:17;96479.38;;;11.22;67.37
48800;BME280;34611;47.964;7.982;2023-03-25T15:37:48;96453.47;;;11.20;67.44
48800;BME280;34611;47.964;7.982;2023-03-25T15:45:06;96436.25;;;11.19;67.29
48800;BME280;34611;47.964;7.982;2023-03-25T15:59:39;96435.13;;;11.22;67.56
48800;BME280;34611;47.964;7.982;2023-03-25T16:06:43;96441.16;;;11.22;67.60
48800;BME280;34611;47.964;7.982;2023-03-25T16:13:45;96444.72;;;11.21;67.38
48800;BME280;34611;47.964;7.982;2023-03-25T16:20:45;96447.34;;;11.21;67.29
48800;BME280;34611;47.964;7.982;2023-03-25T16:27:46;96444.72;;;11.21;67.53
48800;BME280;34611;47.964;7.982;2023-03-25T16:34:49;96464.56;;;11.22;67.35
48800;BME280;34611;47.964;7.982;2023-03-25T16:41:58;96462.78;;;11.23;67.60
48800;BME280;34611;47.964;7.982;2023-03-25T16:48:59;96455.94;;;11.22;67.57
48800;BME280;34611;47.964;7.982;2023-03-25T17:03:14;96448.97;;;11.22;67.37
48800;BME280;34611;47.964;7.982;2023-03-25T17:10:26;96459.38;;;11.22;67.31
48800;BME280;34611;47.964;7.982;2023-03-25T17:24:41;96446.34;;;11.22;67.54
48800;BME280;34611;47.964;7.982;2023-03-25T17:31:42;96435.13;;;11.22;67.56
48800;BME280;34611;47.964;7.982;2023-03-25T17:38:43;96452.38;;;11.23;67.47
48800;BME280;34611;47.964;7.982;2023-03-25T17:45:44;96462.78;;;11.23;67.43
48800;BME280;34611;47.964;7.982;2023-03-25T17:52:44;96463.75;;;11.22;67.55
48800;BME280;34611;47.964;7.982;2023-03-25T17:59:45;96471.56;;;11.22;67.49
48800;BME280;34611;47.964;7.982;2023-03-25T18:06:46;96468.81;;;11.23;67.41
48800;BME280;34611;47.964;7.982;2023-03-25T18:13:46;96488.97;;;11.21;67.56
48800;BME280;34611;47.964;7.982;2023-03-25T18:20:47;96489.75;;;11.31;67.17
48800;BME280;34611;47.964;7.982;2023-03-25T18:27:50;96481.84;;;11.23;67.54
48800;BME280;34611;47.964;7.982;2023-03-25T18:34:51;96479.38;;;11.22;67.31
48800;BME280;34611;47.964;7.982;2023-03-25T18:41:54;96486.34;;;11.21;67.58
48800;BME280;34611;47.964;7.982;2023-03-25T18:48:54;96479.50;;;11.20;67.47
48800;BME280;34611;47.964;7.982;2023-03-25T18:55:57;96486.34;;;11.21;67.28
48800;BME280;34611;47.964;7.982;2023-03-25T19:03:00;96485.38;;;11.22;67.46
48800;BME280;34611;47.964;7.982;2023-03-25T19:10:00;96484.56;;;11.22;67.01
48800;BME280;34611;47.964;7.982;2023-03-25T19:17:01;96496.75;;;11.21;67.44
48800;BME280;34611;47.964;7.982;2023-03-25T19:24:01;96507.16;;;11.21;67.24
48800;BME280;34611;47.964;7.982;2023-03-25T19:31:01;96517.59;;;11.21;67.37
48800;BME280;34611;47.964;7.982;2023-03-25T19:38:02;96507.16;;;11.21;67.44
48800;BME280;34611;47.964;7.982;2023-03-25T19:45:04;96497.56;;;11.22;67.35
48800;BME280;34611;47.964;7.982;2023-03-25T19:52:05;96514.97;;;11.21;67.29
48800;BME280;34611;47.964;7.982;2023-03-25T19:59:06;96481.16;;;11.21;67.29
48800;BME280;34611;47.964;7.982;2023-03-25T20:06:07;96476.09;;;11.20;67.19
48800;BME280;34611;47.964;7.982;2023-03-25T20:13:07;96484.56;;;11.22;67.26
48800;BME280;34611;47.964;7.982;2023-03-25T20:20:09;96496.75;;;11.21;67.22
48800;BME280;34611;47.964;7.982;2023-03-25T20:27:10;96489.09;;;11.20;67.28
48800;BME280;34611;47.964;7.982;2023-03-25T20:34:11;96484.69;;;11.20;67.05
48800;BME280;34611;47.964;7.982;2023-03-25T20:41:11;96486.34;;;11.21;67.24
48800;BME280;34611;47.964;7.982;2023-03-25T20:48:11;96490.72;;;11.21;66.99
48800;BME280;34611;47.964;7.982;2023-03-25T20:55:12;96489.09;;;11.20;67.24
48800;BME280;34611;47.964;7.982;2023-03-25T21:02:12;96486.34;;;11.21;67.17
48800;BME280;34611;47.964;7.982;2023-03-25T21:09:13;96479.50;;;11.20;66.96
48800;BME280;34611;47.964;7.982;2023-03-25T21:16:13;96478.56;;;11.21;67.00
48800;BME280;34611;47.964;7.982;2023-03-25T21:23:14;96464.69;;;11.21;67.26
48800;BME280;34611;47.964;7.982;2023-03-25T21:30:15;96477.72;;;11.21;67.17
48800;BME280;34611;47.964;7.982;2023-03-25T21:37:16;96478.69;;;11.20;67.16
48800;BME280;34611;47.964;7.982;2023-03-25T21:44:16;96489.09;;;11.20;67.09
48800;BME280;34611;47.964;7.982;2023-03-25T21:51:16;96502.09;;;11.20;67.42
48800;BME280;34611;47.964;7.982;2023-03-25T21:58:17;96480.47;;;11.19;67.08
48800;BME280;34611;47.964;7.982;2023-03-25T22:05:21;96467.47;;;11.19;66.97
48800;BME280;34611;47.964;7.982;2023-03-25T22:12:22;96463.88;;;11.20;67.05
48800;BME280;34611;47.964;7.982;2023-03-25T22:19:22;96460.59;;;11.18;67.18
48800;BME280;34611;47.964;7.982;2023-03-25T22:26:23;96457.06;;;11.19;67.09
48800;BME280;34611;47.964;7.982;2023-03-25T22:33:24;96460.47;;;11.20;66.97
48800;BME280;34611;47.964;7.982;2023-03-25T22:40:24;96453.47;;;11.20;67.03
48800;BME280;34611;47.964;7.982;2023-03-25T22:47:24;96451.00;;;11.19;67.06
48800;BME280;34611;47.964;7.982;2023-03-25T22:54:25;96437.19;;;11.18;66.99
48800;BME280;34611;47.964;7.982;2023-03-25T23:01:25;96432.00;;;11.18;66.98
48800;BME280;34611;47.964;7.982;2023-03-25T23:08:26;96429.25;;;11.20;66.99
48800;BME280;34611;47.964;7.982;2023-03-25T23:15:30;96427.47;;;11.20;66.91
48800;BME280;34611;47.964;7.982;2023-03-25T23:22:30;96421.59;;;11.18;67.06
48800;BME280;34611;47.964;7.982;2023-03-25T23:29:30;96407.63;;;11.19;66.90
48800;BME280;34611;47.964;7.982;2023-03-25T23:36:32;96396.25;;;11.20;67.05
48800;BME280;34611;47.964;7.982;2023-03-25T23:43:35;96394.63;;;11.19;66.87
48800;BME280;34611;47.964;7.982;2023-03-25T23:50:36;96398.97;;;11.19;67.06
48800;BME280;34611;47.964;7.982;2023-03-25T23:57:36;96383.38;;;11.19;66.85
